Huletts Landing, New York
Current Conditions -  °F | °C
As of 10:53 PM on Saturday 22 Nov 2014 (Local Time) from KGFL Reporting Station
Light Rain Light Rain  
Wind Chill: 28°   Ceiling: 2400
Heat Index: 36°   Visibility: 7mi
Dew Point: 24°   Wind: 10mph
Humidity: 62%   Direction: 190°S
Pressure: 30.04"   Gusts: NA
Location:  43.64°N, 73.51°W
Report Text: KGFL 230353Z AUTO 19009KT 7SM -RA OVC024 02/M04 A3004 RMK AO2 RAB41 SLP180 P0000 T00221044
Loading
Personal Weather Stations






























Interactive Weather Map New forecast layout! Learn more

10-Day Weather Forecast

Advertisements
Track Severe Weather on mobile